createdAt,value
2023-06-19T00:09:30.396Z,8.35
2023-06-19T00:19:37.652Z,10.65
2023-06-19T00:29:39.695Z,8.90
2023-06-19T00:39:44.679Z,10.75
2023-06-19T00:49:47.092Z,10.15
2023-06-19T00:59:49.491Z,8.57
2023-06-19T01:10:01.051Z,10.55
2023-06-19T01:20:08.258Z,10.38
2023-06-19T01:30:11.792Z,10.75
2023-06-19T01:40:16.726Z,11.15
2023-06-19T01:50:25.851Z,9.88
2023-06-19T02:00:30.005Z,7.55
2023-06-19T02:10:32.008Z,10.32
2023-06-19T02:20:34.085Z,7.60
2023-06-19T02:30:36.114Z,10.05
2023-06-19T02:40:38.093Z,9.93
2023-06-19T02:50:42.048Z,9.82
2023-06-19T03:00:45.752Z,10.00
2023-06-19T03:10:47.809Z,9.82
2023-06-19T03:20:49.748Z,9.95
2023-06-19T03:30:51.840Z,7.88
2023-06-19T03:40:53.866Z,10.45
2023-06-19T03:50:56.541Z,8.90
2023-06-19T04:00:58.459Z,9.85
2023-06-19T04:11:02.497Z,12.57
2023-06-19T04:21:04.492Z,12.85
2023-06-19T04:31:06.885Z,10.85
2023-06-19T04:41:08.900Z,13.15
2023-06-19T04:51:11.918Z,12.50
2023-06-19T05:01:14.703Z,10.93
2023-06-19T05:11:18.730Z,12.27
2023-06-19T05:21:26.689Z,12.00
2023-06-19T05:31:28.853Z,10.68
2023-06-19T05:41:32.326Z,10.63
2023-06-19T05:51:34.379Z,11.85
2023-06-19T06:01:36.454Z,10.95
2023-06-19T06:11:38.931Z,12.10
2023-06-19T06:21:50.901Z,8.25
2023-06-19T06:31:55.560Z,9.38
2023-06-19T06:41:58.613Z,8.43
2023-06-19T06:52:10.036Z,7.03
2023-06-19T07:02:16.920Z,6.30
2023-06-19T07:12:18.944Z,6.25
2023-06-19T07:22:23.011Z,7.93
2023-06-19T07:32:28.322Z,5.80
2023-06-19T07:42:36.551Z,5.35
2023-06-19T07:52:40.654Z,5.57
2023-06-19T08:02:43.374Z,5.10
2023-06-19T08:12:46.446Z,5.43
2023-06-19T08:22:49.530Z,5.38
2023-06-19T08:32:53.587Z,5.72
2023-06-19T08:42:57.212Z,4.88
2023-06-19T08:53:01.407Z,3.47
2023-06-19T09:03:13.866Z,4.18
2023-06-19T09:13:17.978Z,3.97
2023-06-19T09:23:32.362Z,3.88
2023-06-19T09:33:35.972Z,4.82
2023-06-19T09:43:41.089Z,4.57
2023-06-19T09:53:46.267Z,4.30
2023-06-19T10:03:48.371Z,4.13
2023-06-19T10:13:50.461Z,5.35
2023-06-19T10:23:58.665Z,4.10
2023-06-19T10:34:06.030Z,3.72
2023-06-19T10:44:14.788Z,4.47
2023-06-19T10:54:16.997Z,2.10
2023-06-19T11:04:19.141Z,4.00
2023-06-19T11:14:21.320Z,5.50
2023-06-19T11:24:25.001Z,4.45
2023-06-19T11:34:38.151Z,5.13
2023-06-19T11:45:03.966Z,4.95
2023-06-19T11:55:07.661Z,4.85
2023-06-19T12:05:10.201Z,6.15
2023-06-19T12:15:12.267Z,5.35
2023-06-19T12:25:14.447Z,4.38
2023-06-19T12:35:16.786Z,4.88
2023-06-19T12:45:18.841Z,5.22
2023-06-19T12:55:20.926Z,4.57
2023-06-19T13:05:22.997Z,4.78
2023-06-19T13:15:26.491Z,4.55
2023-06-19T13:25:33.951Z,5.65
2023-06-19T13:35:37.941Z,4.90
2023-06-19T13:45:40.210Z,3.80
2023-06-19T13:55:45.942Z,4.22
2023-06-19T14:05:48.183Z,4.32
2023-06-19T14:15:50.296Z,4.63
2023-06-19T14:25:52.457Z,4.05
2023-06-19T14:35:54.728Z,4.75
2023-06-19T14:45:58.795Z,3.65
2023-06-19T14:56:01.589Z,3.47
2023-06-19T15:06:05.243Z,3.92
2023-06-19T15:16:09.332Z,4.65
2023-06-19T15:26:15.822Z,4.60
2023-06-19T15:36:18.370Z,4.10
2023-06-19T15:46:20.548Z,3.83
2023-06-19T15:56:22.649Z,4.00
2023-06-19T16:06:24.670Z,4.32
2023-06-19T16:16:26.971Z,5.15
2023-06-19T16:26:29.945Z,5.40
2023-06-19T16:36:32.097Z,5.03
2023-06-19T16:46:38.506Z,5.07
2023-06-19T16:56:41.801Z,4.95
2023-06-19T17:06:44.880Z,5.38
2023-06-19T17:16:49.878Z,4.85
2023-06-19T17:26:58.364Z,4.70
2023-06-19T17:37:02.724Z,4.57
2023-06-19T17:47:04.963Z,4.75
2023-06-19T17:57:07.295Z,5.18
2023-06-19T18:07:10.551Z,4.38
2023-06-19T18:17:15.083Z,6.35
2023-06-19T18:27:20.308Z,5.88
2023-06-19T18:37:26.342Z,5.63
2023-06-19T18:47:28.348Z,6.22
2023-06-19T18:57:31.448Z,6.20
2023-06-19T19:07:33.383Z,6.78
2023-06-19T19:17:36.679Z,7.72
2023-06-19T19:27:38.895Z,8.15
2023-06-19T19:37:41.040Z,8.63
2023-06-19T19:57:58.389Z,6.95
2023-06-19T20:08:00.368Z,8.60
2023-06-19T20:18:03.376Z,7.95
2023-06-19T20:38:25.561Z,8.05
2023-06-19T20:48:29.854Z,7.82
2023-06-19T20:58:34.608Z,8.73
2023-06-19T21:08:38.704Z,7.32
2023-06-19T21:18:40.603Z,7.32
2023-06-19T21:28:54.796Z,10.80
2023-06-19T21:38:56.760Z,8.40
2023-06-19T21:48:59.990Z,8.48
2023-06-19T21:59:01.924Z,9.18
2023-06-19T22:09:03.939Z,10.65
2023-06-19T22:19:07.374Z,10.02
2023-06-19T22:29:19.317Z,10.20
2023-06-19T22:39:21.488Z,9.68
2023-06-19T22:49:44.981Z,9.75
2023-06-19T22:59:55.967Z,11.68
2023-06-19T23:10:01.655Z,10.80
2023-06-19T23:20:12.326Z,10.85
2023-06-19T23:30:15.367Z,10.90
2023-06-19T23:40:17.926Z,12.00
2023-06-19T23:50:19.869Z,12.32
